Terminal Aerodrome Forecast
Issued by NWS

Home | Current Version | Previous Version | Text Only | Print | Product List | Glossary On
Versions: 1 2 3 4 5 6 7 8 9 10 11 12 13 14 15 16 17 18 19 20
000
FTUS46 KHNX 081140
TAFVIS
TAF
KVIS 081140Z 0812/0912 VRB03KT 2SM -RA BR FEW035 OVC050
     FM081700 14007KT 4SM BR VCSH OVC030
     FM090100 12005KT 2SM -RA BR OVC015=

USA.gov is the U.S. government's official web portal to all federal, state and local government web resources and services.